sensor_id;sensor_type;location;lat;lon;timestamp;pressure;altitude;pressure_sealevel;temperature;humidity
49709;BME280;35601;55.902;13.606;2024-02-26T00:00:18;99679.50;;;1.56;74.42
49709;BME280;35601;55.902;13.606;2024-02-26T00:02:43;99679.80;;;1.54;75.43
49709;BME280;35601;55.902;13.606;2024-02-26T00:05:09;99682.80;;;1.34;75.64
49709;BME280;35601;55.902;13.606;2024-02-26T00:07:35;99686.78;;;1.48;76.32
49709;BME280;35601;55.902;13.606;2024-02-26T00:10:00;99684.60;;;1.68;76.17
49709;BME280;35601;55.902;13.606;2024-02-26T00:12:26;99682.76;;;1.27;76.18
49709;BME280;35601;55.902;13.606;2024-02-26T00:14:52;99681.30;;;1.51;76.14
49709;BME280;35601;55.902;13.606;2024-02-26T00:17:18;99679.44;;;1.16;76.77
49709;BME280;35601;55.902;13.606;2024-02-26T00:19:43;99678.13;;;1.30;76.37
49709;BME280;35601;55.902;13.606;2024-02-26T00:22:08;99672.59;;;1.39;76.31
49709;BME280;35601;55.902;13.606;2024-02-26T00:24:33;99669.76;;;1.65;76.35
49709;BME280;35601;55.902;13.606;2024-02-26T00:26:59;99669.91;;;1.44;76.39
49709;BME280;35601;55.902;13.606;2024-02-26T00:29:24;99667.08;;;1.55;76.15
49709;BME280;35601;55.902;13.606;2024-02-26T00:31:50;99665.54;;;1.45;75.83
49709;BME280;35601;55.902;13.606;2024-02-26T00:34:15;99666.21;;;1.74;75.85
49709;BME280;35601;55.902;13.606;2024-02-26T00:36:41;99663.68;;;1.56;75.35
49709;BME280;35601;55.902;13.606;2024-02-26T00:39:06;99661.30;;;1.86;75.01
49709;BME280;35601;55.902;13.606;2024-02-26T00:41:32;99659.71;;;1.61;74.77
49709;BME280;35601;55.902;13.606;2024-02-26T00:43:58;99661.65;;;1.67;74.46
49709;BME280;35601;55.902;13.606;2024-02-26T00:46:23;99662.13;;;1.79;74.44
49709;BME280;35601;55.902;13.606;2024-02-26T00:48:48;99662.16;;;1.62;74.19
49709;BME280;35601;55.902;13.606;2024-02-26T00:51:14;99662.42;;;1.63;74.17
49709;BME280;35601;55.902;13.606;2024-02-26T00:53:39;99662.02;;;2.06;74.75
49709;BME280;35601;55.902;13.606;2024-02-26T00:56:04;99666.37;;;1.65;74.83
49709;BME280;35601;55.902;13.606;2024-02-26T00:58:29;99664.93;;;1.70;74.72
49709;BME280;35601;55.902;13.606;2024-02-26T01:00:55;99665.36;;;1.73;74.64
49709;BME280;35601;55.902;13.606;2024-02-26T01:03:21;99662.67;;;1.61;74.66
49709;BME280;35601;55.902;13.606;2024-02-26T01:05:47;99665.78;;;1.59;74.73
49709;BME280;35601;55.902;13.606;2024-02-26T01:08:12;99663.82;;;1.42;74.75
49709;BME280;35601;55.902;13.606;2024-02-26T01:10:37;99661.47;;;1.25;75.34
49709;BME280;35601;55.902;13.606;2024-02-26T01:13:03;99659.95;;;1.19;75.60
49709;BME280;35601;55.902;13.606;2024-02-26T01:15:29;99661.73;;;1.70;75.73
49709;BME280;35601;55.902;13.606;2024-02-26T01:17:54;99659.73;;;1.61;75.88
49709;BME280;35601;55.902;13.606;2024-02-26T01:20:20;99658.74;;;1.48;75.76
49709;BME280;35601;55.902;13.606;2024-02-26T01:22:45;99656.77;;;1.23;75.97
49709;BME280;35601;55.902;13.606;2024-02-26T01:25:11;99655.09;;;1.71;75.95
49709;BME280;35601;55.902;13.606;2024-02-26T01:27:37;99658.89;;;1.85;75.63
49709;BME280;35601;55.902;13.606;2024-02-26T01:30:03;99660.38;;;1.74;75.08
49709;BME280;35601;55.902;13.606;2024-02-26T01:32:27;99661.51;;;1.80;74.58
49709;BME280;35601;55.902;13.606;2024-02-26T01:34:53;99660.69;;;1.81;73.82
49709;BME280;35601;55.902;13.606;2024-02-26T01:37:18;99659.79;;;1.53;73.22
49709;BME280;35601;55.902;13.606;2024-02-26T01:39:43;99659.18;;;1.45;73.65
49709;BME280;35601;55.902;13.606;2024-02-26T01:42:09;99658.42;;;1.43;74.02
49709;BME280;35601;55.902;13.606;2024-02-26T01:44:34;99660.00;;;1.77;74.66
49709;BME280;35601;55.902;13.606;2024-02-26T01:47:00;99662.63;;;1.23;75.08
49709;BME280;35601;55.902;13.606;2024-02-26T01:49:25;99661.12;;;1.50;74.90
49709;BME280;35601;55.902;13.606;2024-02-26T01:51:50;99661.80;;;1.40;74.72
49709;BME280;35601;55.902;13.606;2024-02-26T01:54:16;99665.21;;;1.52;74.20
49709;BME280;35601;55.902;13.606;2024-02-26T01:56:41;99665.46;;;1.80;73.99
49709;BME280;35601;55.902;13.606;2024-02-26T01:59:08;99663.22;;;1.60;73.81
49709;BME280;35601;55.902;13.606;2024-02-26T02:01:33;99661.75;;;1.88;73.46
49709;BME280;35601;55.902;13.606;2024-02-26T02:03:59;99662.15;;;1.87;73.27
49709;BME280;35601;55.902;13.606;2024-02-26T02:06:24;99662.00;;;1.68;72.79
49709;BME280;35601;55.902;13.606;2024-02-26T02:08:49;99664.80;;;1.68;72.25
49709;BME280;35601;55.902;13.606;2024-02-26T02:11:15;99663.71;;;1.63;71.54
49709;BME280;35601;55.902;13.606;2024-02-26T02:13:41;99663.87;;;1.60;71.53
49709;BME280;35601;55.902;13.606;2024-02-26T02:16:06;99665.04;;;1.58;71.41
49709;BME280;35601;55.902;13.606;2024-02-26T02:18:32;99663.50;;;1.51;71.95
49709;BME280;35601;55.902;13.606;2024-02-26T02:20:57;99662.25;;;1.45;72.08
49709;BME280;35601;55.902;13.606;2024-02-26T02:23:22;99659.24;;;1.23;72.36
49709;BME280;35601;55.902;13.606;2024-02-26T02:25:48;99660.81;;;1.70;72.94
49709;BME280;35601;55.902;13.606;2024-02-26T02:28:14;99664.28;;;1.52;72.83
49709;BME280;35601;55.902;13.606;2024-02-26T02:30:39;99665.22;;;1.32;72.40
49709;BME280;35601;55.902;13.606;2024-02-26T02:33:04;99661.41;;;1.22;72.17
49709;BME280;35601;55.902;13.606;2024-02-26T02:35:29;99662.09;;;1.41;72.38
49709;BME280;35601;55.902;13.606;2024-02-26T02:37:55;99664.17;;;1.35;72.00
49709;BME280;35601;55.902;13.606;2024-02-26T02:40:20;99666.89;;;1.37;71.90
49709;BME280;35601;55.902;13.606;2024-02-26T02:42:45;99665.97;;;1.04;71.64
49709;BME280;35601;55.902;13.606;2024-02-26T02:45:11;99669.60;;;1.34;71.87
49709;BME280;35601;55.902;13.606;2024-02-26T02:47:36;99672.56;;;1.37;71.68
49709;BME280;35601;55.902;13.606;2024-02-26T02:50:01;99678.04;;;1.45;71.36
49709;BME280;35601;55.902;13.606;2024-02-26T02:52:27;99678.80;;;1.20;70.90
49709;BME280;35601;55.902;13.606;2024-02-26T02:54:53;99682.27;;;0.88;70.23
49709;BME280;35601;55.902;13.606;2024-02-26T02:57:18;99682.06;;;1.29;69.68
49709;BME280;35601;55.902;13.606;2024-02-26T02:59:44;99680.66;;;1.22;69.41
49709;BME280;35601;55.902;13.606;2024-02-26T03:02:09;99682.06;;;0.81;69.96
49709;BME280;35601;55.902;13.606;2024-02-26T03:04:34;99681.30;;;0.49;70.85
49709;BME280;35601;55.902;13.606;2024-02-26T03:06:59;99686.75;;;0.13;71.87
49709;BME280;35601;55.902;13.606;2024-02-26T03:09:25;99687.47;;;0.28;73.14
49709;BME280;35601;55.902;13.606;2024-02-26T03:11:50;99684.45;;;0.51;72.36
49709;BME280;35601;55.902;13.606;2024-02-26T03:14:16;99678.99;;;0.58;71.44
49709;BME280;35601;55.902;13.606;2024-02-26T03:16:41;99677.94;;;0.36;70.50
49709;BME280;35601;55.902;13.606;2024-02-26T03:19:06;99683.14;;;0.53;69.10
49709;BME280;35601;55.902;13.606;2024-02-26T03:21:33;99685.50;;;0.50;68.68
49709;BME280;35601;55.902;13.606;2024-02-26T03:23:57;99682.74;;;0.19;68.50
49709;BME280;35601;55.902;13.606;2024-02-26T03:26:23;99684.62;;;0.35;68.02
49709;BME280;35601;55.902;13.606;2024-02-26T03:28:48;99684.24;;;0.28;68.26
49709;BME280;35601;55.902;13.606;2024-02-26T03:31:13;99685.36;;;0.24;68.12
49709;BME280;35601;55.902;13.606;2024-02-26T03:33:39;99691.38;;;0.04;67.74
49709;BME280;35601;55.902;13.606;2024-02-26T03:36:05;99696.97;;;0.28;67.55
49709;BME280;35601;55.902;13.606;2024-02-26T03:38:29;99702.36;;;0.23;67.61
49709;BME280;35601;55.902;13.606;2024-02-26T03:40:54;99703.74;;;-0.08;67.63
49709;BME280;35601;55.902;13.606;2024-02-26T03:43:19;99710.21;;;-0.15;67.75
49709;BME280;35601;55.902;13.606;2024-02-26T03:45:45;99711.37;;;-0.22;68.19
49709;BME280;35601;55.902;13.606;2024-02-26T03:48:10;99715.01;;;-0.25;68.46
49709;BME280;35601;55.902;13.606;2024-02-26T03:50:35;99716.17;;;-0.36;68.57
49709;BME280;35601;55.902;13.606;2024-02-26T03:53:00;99715.91;;;-0.17;69.23
49709;BME280;35601;55.902;13.606;2024-02-26T03:55:26;99720.80;;;-0.41;69.43
49709;BME280;35601;55.902;13.606;2024-02-26T03:57:52;99726.87;;;-0.13;69.32
49709;BME280;35601;55.902;13.606;2024-02-26T04:00:19;99728.13;;;-0.47;69.63
49709;BME280;35601;55.902;13.606;2024-02-26T04:02:42;99729.73;;;-0.37;69.98
49709;BME280;35601;55.902;13.606;2024-02-26T04:05:09;99730.54;;;-0.33;70.29
49709;BME280;35601;55.902;13.606;2024-02-26T04:07:33;99731.74;;;-0.59;70.82
49709;BME280;35601;55.902;13.606;2024-02-26T04:09:59;99731.70;;;-0.55;70.82
49709;BME280;35601;55.902;13.606;2024-02-26T04:12:24;99732.90;;;-0.38;70.75
49709;BME280;35601;55.902;13.606;2024-02-26T04:14:49;99735.89;;;-0.69;71.46
49709;BME280;35601;55.902;13.606;2024-02-26T04:17:15;99734.65;;;-0.35;71.66
49709;BME280;35601;55.902;13.606;2024-02-26T04:19:40;99736.71;;;-0.37;71.39
49709;BME280;35601;55.902;13.606;2024-02-26T04:22:05;99739.39;;;-0.82;72.20
49709;BME280;35601;55.902;13.606;2024-02-26T04:24:31;99742.10;;;-0.74;72.65
49709;BME280;35601;55.902;13.606;2024-02-26T04:26:56;99747.73;;;-0.58;72.34
49709;BME280;35601;55.902;13.606;2024-02-26T04:29:21;99749.81;;;-0.47;71.70
49709;BME280;35601;55.902;13.606;2024-02-26T04:31:47;99753.94;;;-0.42;71.11
49709;BME280;35601;55.902;13.606;2024-02-26T04:34:12;99753.81;;;-0.45;70.28
49709;BME280;35601;55.902;13.606;2024-02-26T04:36:37;99753.69;;;-0.48;70.14
49709;BME280;35601;55.902;13.606;2024-02-26T04:39:03;99754.43;;;-0.57;70.14
49709;BME280;35601;55.902;13.606;2024-02-26T04:41:29;99754.38;;;-0.58;70.18
49709;BME280;35601;55.902;13.606;2024-02-26T04:43:54;99753.94;;;-0.66;70.16
49709;BME280;35601;55.902;13.606;2024-02-26T04:46:20;99755.57;;;-0.95;70.59
49709;BME280;35601;55.902;13.606;2024-02-26T04:48:45;99763.96;;;-0.75;69.83
49709;BME280;35601;55.902;13.606;2024-02-26T04:51:10;99764.09;;;-1.03;68.84
49709;BME280;35601;55.902;13.606;2024-02-26T04:53:36;99765.91;;;-0.68;69.19
49709;BME280;35601;55.902;13.606;2024-02-26T04:56:01;99763.08;;;-0.63;68.61
49709;BME280;35601;55.902;13.606;2024-02-26T04:58:27;99762.92;;;-1.17;68.54
49709;BME280;35601;55.902;13.606;2024-02-26T05:00:52;99764.66;;;-0.71;68.71
49709;BME280;35601;55.902;13.606;2024-02-26T05:03:18;99769.95;;;-1.23;68.60
49709;BME280;35601;55.902;13.606;2024-02-26T05:05:43;99775.95;;;-1.04;68.67
49709;BME280;35601;55.902;13.606;2024-02-26T05:08:08;99782.18;;;-1.40;69.16
49709;BME280;35601;55.902;13.606;2024-02-26T05:10:34;99781.57;;;-1.15;69.21
49709;BME280;35601;55.902;13.606;2024-02-26T05:12:59;99782.41;;;-0.89;69.21
49709;BME280;35601;55.902;13.606;2024-02-26T05:15:25;99780.70;;;-1.19;69.13
49709;BME280;35601;55.902;13.606;2024-02-26T05:17:50;99782.51;;;-1.41;68.84
49709;BME280;35601;55.902;13.606;2024-02-26T05:20:15;99784.45;;;-1.18;68.85
49709;BME280;35601;55.902;13.606;2024-02-26T05:22:41;99791.20;;;-1.00;69.05
49709;BME280;35601;55.902;13.606;2024-02-26T05:25:07;99793.81;;;-1.17;69.75
49709;BME280;35601;55.902;13.606;2024-02-26T05:27:32;99799.29;;;-1.36;69.72
49709;BME280;35601;55.902;13.606;2024-02-26T05:29:57;99804.86;;;-1.11;68.69
49709;BME280;35601;55.902;13.606;2024-02-26T05:32:22;99810.11;;;-1.61;68.31
49709;BME280;35601;55.902;13.606;2024-02-26T05:34:48;99813.83;;;-2.28;67.88
49709;BME280;35601;55.902;13.606;2024-02-26T05:37:13;99812.94;;;-1.22;67.67
49709;BME280;35601;55.902;13.606;2024-02-26T05:39:38;99818.57;;;-1.30;68.08
49709;BME280;35601;55.902;13.606;2024-02-26T05:42:04;99820.20;;;-1.33;68.51
49709;BME280;35601;55.902;13.606;2024-02-26T05:44:29;99821.66;;;-1.41;68.78
49709;BME280;35601;55.902;13.606;2024-02-26T05:46:54;99823.47;;;-1.39;69.21
49709;BME280;35601;55.902;13.606;2024-02-26T05:49:19;99826.45;;;-1.36;68.96
49709;BME280;35601;55.902;13.606;2024-02-26T05:51:44;99828.48;;;-1.42;68.34
49709;BME280;35601;55.902;13.606;2024-02-26T05:54:09;99838.21;;;-1.47;68.32
49709;BME280;35601;55.902;13.606;2024-02-26T05:56:35;99842.92;;;-1.46;68.40
49709;BME280;35601;55.902;13.606;2024-02-26T05:59:01;99846.84;;;-1.55;68.84
49709;BME280;35601;55.902;13.606;2024-02-26T06:01:27;99852.30;;;-1.53;69.06
49709;BME280;35601;55.902;13.606;2024-02-26T06:03:52;99857.88;;;-1.46;69.00
49709;BME280;35601;55.902;13.606;2024-02-26T06:06:17;99858.41;;;-1.54;68.77
49709;BME280;35601;55.902;13.606;2024-02-26T06:08:43;99864.09;;;-1.53;68.95
49709;BME280;35601;55.902;13.606;2024-02-26T06:11:09;99867.51;;;-1.76;69.32
49709;BME280;35601;55.902;13.606;2024-02-26T06:13:34;99870.43;;;-1.47;69.28
49709;BME280;35601;55.902;13.606;2024-02-26T06:15:59;99872.49;;;-1.43;69.23
49709;BME280;35601;55.902;13.606;2024-02-26T06:18:24;99876.36;;;-1.44;68.62
49709;BME280;35601;55.902;13.606;2024-02-26T06:20:50;99881.74;;;-1.48;68.58
49709;BME280;35601;55.902;13.606;2024-02-26T06:23:16;99880.85;;;-1.51;68.73
49709;BME280;35601;55.902;13.606;2024-02-26T06:25:41;99880.13;;;-1.48;68.64
49709;BME280;35601;55.902;13.606;2024-02-26T06:28:07;99879.13;;;-1.51;68.58
49709;BME280;35601;55.902;13.606;2024-02-26T06:30:32;99881.94;;;-1.54;68.85
49709;BME280;35601;55.902;13.606;2024-02-26T06:32:57;99884.47;;;-1.55;68.92
49709;BME280;35601;55.902;13.606;2024-02-26T06:35:22;99886.98;;;-1.55;68.89
49709;BME280;35601;55.902;13.606;2024-02-26T06:37:48;99888.38;;;-1.55;68.85
49709;BME280;35601;55.902;13.606;2024-02-26T06:40:13;99888.98;;;-1.56;68.96
49709;BME280;35601;55.902;13.606;2024-02-26T06:42:38;99895.51;;;-1.79;69.18
49709;BME280;35601;55.902;13.606;2024-02-26T06:45:05;99898.91;;;-1.50;69.25
49709;BME280;35601;55.902;13.606;2024-02-26T06:47:28;99904.22;;;-1.51;69.35
49709;BME280;35601;55.902;13.606;2024-02-26T06:49:54;99910.12;;;-1.44;69.45
49709;BME280;35601;55.902;13.606;2024-02-26T06:52:19;99913.15;;;-1.39;69.23
49709;BME280;35601;55.902;13.606;2024-02-26T06:54:45;99914.07;;;-1.41;69.00
49709;BME280;35601;55.902;13.606;2024-02-26T06:57:11;99916.89;;;-1.72;69.40
49709;BME280;35601;55.902;13.606;2024-02-26T06:59:36;99922.55;;;-1.69;70.40
49709;BME280;35601;55.902;13.606;2024-02-26T07:02:01;99925.99;;;-1.62;70.37
49709;BME280;35601;55.902;13.606;2024-02-26T07:04:26;99929.01;;;-1.55;70.80
49709;BME280;35601;55.902;13.606;2024-02-26T07:06:51;99930.96;;;-1.42;70.97
49709;BME280;35601;55.902;13.606;2024-02-26T07:09:16;99934.37;;;-1.80;71.44
49709;BME280;35601;55.902;13.606;2024-02-26T07:11:41;99935.07;;;-1.72;72.00
49709;BME280;35601;55.902;13.606;2024-02-26T07:14:07;99937.04;;;-1.37;71.97
49709;BME280;35601;55.902;13.606;2024-02-26T07:16:32;99940.90;;;-1.37;73.07
49709;BME280;35601;55.902;13.606;2024-02-26T07:18:57;99941.25;;;-1.24;73.82
49709;BME280;35601;55.902;13.606;2024-02-26T07:21:22;99937.30;;;-1.11;73.75
49709;BME280;35601;55.902;13.606;2024-02-26T07:23:47;99937.27;;;-1.06;73.90
49709;BME280;35601;55.902;13.606;2024-02-26T07:26:13;99939.01;;;-1.42;74.04
49709;BME280;35601;55.902;13.606;2024-02-26T07:28:39;99941.72;;;-1.78;75.19
49709;BME280;35601;55.902;13.606;2024-02-26T07:31:04;99942.96;;;-1.07;75.18
49709;BME280;35601;55.902;13.606;2024-02-26T07:33:29;99945.78;;;-1.45;75.39
49709;BME280;35601;55.902;13.606;2024-02-26T07:35:55;99951.16;;;-1.08;75.61
49709;BME280;35601;55.902;13.606;2024-02-26T07:38:20;99953.22;;;-0.96;75.85
49709;BME280;35601;55.902;13.606;2024-02-26T07:40:46;99959.98;;;-1.26;76.04
49709;BME280;35601;55.902;13.606;2024-02-26T07:43:12;99962.51;;;-1.21;77.14
49709;BME280;35601;55.902;13.606;2024-02-26T07:45:37;99961.66;;;-1.37;78.07
49709;BME280;35601;55.902;13.606;2024-02-26T07:48:03;99966.04;;;-1.02;78.34
49709;BME280;35601;55.902;13.606;2024-02-26T07:50:28;99962.94;;;-0.81;78.49
49709;BME280;35601;55.902;13.606;2024-02-26T07:52:53;99965.10;;;-0.85;78.11
49709;BME280;35601;55.902;13.606;2024-02-26T07:55:19;99965.79;;;-0.62;77.46
49709;BME280;35601;55.902;13.606;2024-02-26T07:57:44;99967.87;;;-0.37;77.40
49709;BME280;35601;55.902;13.606;2024-02-26T08:00:11;99970.85;;;-0.95;77.63
49709;BME280;35601;55.902;13.606;2024-02-26T08:02:36;99971.02;;;-0.87;77.98
49709;BME280;35601;55.902;13.606;2024-02-26T08:05:01;99971.85;;;-1.14;78.43
49709;BME280;35601;55.902;13.606;2024-02-26T08:07:27;99974.68;;;-0.29;78.39
49709;BME280;35601;55.902;13.606;2024-02-26T08:09:52;99980.76;;;-0.22;77.56
49709;BME280;35601;55.902;13.606;2024-02-26T08:12:18;99982.57;;;-0.25;77.08
49709;BME280;35601;55.902;13.606;2024-02-26T08:14:43;99982.63;;;-0.09;76.62
49709;BME280;35601;55.902;13.606;2024-02-26T08:17:08;99987.84;;;-0.08;76.78
49709;BME280;35601;55.902;13.606;2024-02-26T08:19:33;99993.69;;;-0.20;77.65
49709;BME280;35601;55.902;13.606;2024-02-26T08:21:59;99992.81;;;-0.06;78.30
49709;BME280;35601;55.902;13.606;2024-02-26T08:24:24;99996.69;;;-0.19;77.95
49709;BME280;35601;55.902;13.606;2024-02-26T08:26:50;99998.91;;;0.14;77.99
49709;BME280;35601;55.902;13.606;2024-02-26T08:29:16;100004.27;;;0.08;78.19
49709;BME280;35601;55.902;13.606;2024-02-26T08:31:41;100007.34;;;0.02;77.95
49709;BME280;35601;55.902;13.606;2024-02-26T08:34:06;100002.66;;;0.37;78.65
49709;BME280;35601;55.902;13.606;2024-02-26T08:36:33;100009.00;;;0.70;78.16
49709;BME280;35601;55.902;13.606;2024-02-26T08:38:57;100011.06;;;0.63;76.80
49709;BME280;35601;55.902;13.606;2024-02-26T08:41:23;100009.73;;;0.56;77.24
49709;BME280;35601;55.902;13.606;2024-02-26T08:43:48;100009.48;;;0.43;77.29
49709;BME280;35601;55.902;13.606;2024-02-26T08:46:14;100012.49;;;0.72;77.26
49709;BME280;35601;55.902;13.606;2024-02-26T08:48:40;100016.05;;;1.23;77.04
49709;BME280;35601;55.902;13.606;2024-02-26T08:51:06;100018.80;;;1.21;76.83
49709;BME280;35601;55.902;13.606;2024-02-26T08:53:31;100020.56;;;1.39;76.72
49709;BME280;35601;55.902;13.606;2024-02-26T08:55:56;100023.64;;;1.19;77.03
49709;BME280;35601;55.902;13.606;2024-02-26T08:58:21;100026.01;;;1.16;77.38
49709;BME280;35601;55.902;13.606;2024-02-26T09:00:47;100029.66;;;1.57;77.02
49709;BME280;35601;55.902;13.606;2024-02-26T09:03:13;100029.75;;;1.47;76.92
49709;BME280;35601;55.902;13.606;2024-02-26T09:05:38;100034.50;;;1.62;76.49
49709;BME280;35601;55.902;13.606;2024-02-26T09:08:04;100038.93;;;2.39;75.83
49709;BME280;35601;55.902;13.606;2024-02-26T09:10:29;100042.66;;;1.99;75.85
49709;BME280;35601;55.902;13.606;2024-02-26T09:12:55;100045.44;;;1.77;73.93
49709;BME280;35601;55.902;13.606;2024-02-26T09:15:20;100048.40;;;1.89;74.44
49709;BME280;35601;55.902;13.606;2024-02-26T09:17:45;100052.11;;;1.86;74.24
49709;BME280;35601;55.902;13.606;2024-02-26T09:20:11;100057.32;;;2.21;73.97
49709;BME280;35601;55.902;13.606;2024-02-26T09:22:36;100061.31;;;2.15;73.70
49709;BME280;35601;55.902;13.606;2024-02-26T09:25:02;100063.47;;;2.50;73.67
49709;BME280;35601;55.902;13.606;2024-02-26T09:27:27;100061.82;;;2.83;73.08
49709;BME280;35601;55.902;13.606;2024-02-26T09:29:53;100062.23;;;2.53;72.56
49709;BME280;35601;55.902;13.606;2024-02-26T09:32:19;100064.29;;;2.39;72.04
49709;BME280;35601;55.902;13.606;2024-02-26T09:34:44;100063.11;;;2.49;72.32
49709;BME280;35601;55.902;13.606;2024-02-26T09:37:09;100064.81;;;2.26;73.55
49709;BME280;35601;55.902;13.606;2024-02-26T09:39:34;100066.98;;;2.36;73.52
49709;BME280;35601;55.902;13.606;2024-02-26T09:42:01;100068.00;;;1.34;74.17
49709;BME280;35601;55.902;13.606;2024-02-26T09:44:27;100068.77;;;2.93;73.56
49709;BME280;35601;55.902;13.606;2024-02-26T09:46:52;100069.39;;;3.10;72.79
49709;BME280;35601;55.902;13.606;2024-02-26T09:49:20;100073.90;;;3.24;71.96
49709;BME280;35601;55.902;13.606;2024-02-26T09:51:43;100076.04;;;3.28;72.44
49709;BME280;35601;55.902;13.606;2024-02-26T09:54:10;100078.09;;;3.22;71.46
49709;BME280;35601;55.902;13.606;2024-02-26T09:56:34;100078.58;;;3.61;71.21
49709;BME280;35601;55.902;13.606;2024-02-26T09:58:59;100077.98;;;3.90;70.87
49709;BME280;35601;55.902;13.606;2024-02-26T10:01:24;100079.57;;;4.09;69.92
49709;BME280;35601;55.902;13.606;2024-02-26T10:03:54;100080.04;;;4.52;68.82
49709;BME280;35601;55.902;13.606;2024-02-26T10:06:15;100080.45;;;4.65;68.91
49709;BME280;35601;55.902;13.606;2024-02-26T10:08:42;100078.94;;;5.02;68.88
49709;BME280;35601;55.902;13.606;2024-02-26T10:11:07;100078.13;;;5.78;67.63
49709;BME280;35601;55.902;13.606;2024-02-26T10:13:32;100078.82;;;5.81;66.76
49709;BME280;35601;55.902;13.606;2024-02-26T10:15:57;100078.18;;;6.31;65.09
49709;BME280;35601;55.902;13.606;2024-02-26T10:18:23;100077.79;;;6.56;62.82
49709;BME280;35601;55.902;13.606;2024-02-26T10:21:00;100073.66;;;7.01;62.56
49709;BME280;35601;55.902;13.606;2024-02-26T10:23:14;100067.24;;;7.24;58.78
49709;BME280;35601;55.902;13.606;2024-02-26T10:25:52;100066.67;;;7.29;56.53
49709;BME280;35601;55.902;13.606;2024-02-26T10:28:07;100067.45;;;7.38;55.77
49709;BME280;35601;55.902;13.606;2024-02-26T10:30:31;100070.55;;;7.34;55.60
49709;BME280;35601;55.902;13.606;2024-02-26T10:32:57;100073.81;;;7.36;55.16
49709;BME280;35601;55.902;13.606;2024-02-26T10:35:23;100073.81;;;7.32;55.01
49709;BME280;35601;55.902;13.606;2024-02-26T10:37:50;100074.51;;;7.76;53.96
49709;BME280;35601;55.902;13.606;2024-02-26T10:40:14;100074.08;;;7.65;53.37
49709;BME280;35601;55.902;13.606;2024-02-26T10:42:38;100075.99;;;7.16;53.19
49709;BME280;35601;55.902;13.606;2024-02-26T10:45:05;100078.22;;;7.89;54.79
49709;BME280;35601;55.902;13.606;2024-02-26T10:47:29;100082.09;;;8.01;53.30
49709;BME280;35601;55.902;13.606;2024-02-26T10:49:56;100080.86;;;8.06;51.32
49709;BME280;35601;55.902;13.606;2024-02-26T10:52:20;100082.96;;;7.68;51.10
49709;BME280;35601;55.902;13.606;2024-02-26T10:54:47;100080.62;;;8.08;50.51
49709;BME280;35601;55.902;13.606;2024-02-26T10:57:11;100082.97;;;8.11;50.10
49709;BME280;35601;55.902;13.606;2024-02-26T10:59:37;100082.35;;;8.40;49.57
49709;BME280;35601;55.902;13.606;2024-02-26T11:02:02;100080.94;;;8.45;49.47
49709;BME280;35601;55.902;13.606;2024-02-26T11:04:28;100080.49;;;8.37;48.37
49709;BME280;35601;55.902;13.606;2024-02-26T11:06:54;100078.21;;;8.40;49.28
49709;BME280;35601;55.902;13.606;2024-02-26T11:09:19;100076.74;;;7.94;49.24
49709;BME280;35601;55.902;13.606;2024-02-26T11:11:44;100080.39;;;8.07;49.57
49709;BME280;35601;55.902;13.606;2024-02-26T11:14:10;100081.92;;;7.57;50.05
49709;BME280;35601;55.902;13.606;2024-02-26T11:16:36;100080.84;;;7.10;51.00
49709;BME280;35601;55.902;13.606;2024-02-26T11:19:02;100087.30;;;6.72;51.69
49709;BME280;35601;55.902;13.606;2024-02-26T11:21:26;100088.93;;;6.80;52.06
49709;BME280;35601;55.902;13.606;2024-02-26T11:23:52;100092.78;;;6.54;52.52
49709;BME280;35601;55.902;13.606;2024-02-26T11:26:18;100099.75;;;6.45;52.98
49709;BME280;35601;55.902;13.606;2024-02-26T11:28:44;100099.49;;;6.25;52.80
49709;BME280;35601;55.902;13.606;2024-02-26T11:31:08;100101.41;;;6.14;52.26
49709;BME280;35601;55.902;13.606;2024-02-26T11:33:34;100101.55;;;6.52;53.74
49709;BME280;35601;55.902;13.606;2024-02-26T11:36:00;100097.92;;;6.97;53.43
49709;BME280;35601;55.902;13.606;2024-02-26T11:38:27;100091.09;;;6.77;53.14
49709;BME280;35601;55.902;13.606;2024-02-26T11:40:52;100092.39;;;7.01;52.30
49709;BME280;35601;55.902;13.606;2024-02-26T11:43:16;100092.08;;;7.31;51.11
49709;BME280;35601;55.902;13.606;2024-02-26T11:45:50;100091.72;;;7.94;49.23
49709;BME280;35601;55.902;13.606;2024-02-26T11:48:11;100096.03;;;8.06;49.46
49709;BME280;35601;55.902;13.606;2024-02-26T11:50:36;100098.95;;;8.24;47.24
49709;BME280;35601;55.902;13.606;2024-02-26T11:55:31;100102.05;;;8.67;48.22
49709;BME280;35601;55.902;13.606;2024-02-26T11:57:48;100106.09;;;8.65;45.59
49709;BME280;35601;55.902;13.606;2024-02-26T12:00:14;100109.19;;;8.45;45.90
49709;BME280;35601;55.902;13.606;2024-02-26T12:02:40;100113.36;;;9.00;45.01
49709;BME280;35601;55.902;13.606;2024-02-26T12:05:06;100117.05;;;8.80;43.69
49709;BME280;35601;55.902;13.606;2024-02-26T12:07:29;100116.73;;;9.27;45.66
49709;BME280;35601;55.902;13.606;2024-02-26T12:12:20;100121.80;;;9.36;44.16
49709;BME280;35601;55.902;13.606;2024-02-26T12:14:51;100122.85;;;9.18;42.58
49709;BME280;35601;55.902;13.606;2024-02-26T12:17:18;100121.66;;;9.48;42.96
49709;BME280;35601;55.902;13.606;2024-02-26T12:19:35;100125.54;;;9.54;43.01
49709;BME280;35601;55.902;13.606;2024-02-26T12:22:00;100122.67;;;9.88;42.94
49709;BME280;35601;55.902;13.606;2024-02-26T12:24:25;100126.88;;;10.03;40.73
49709;BME280;35601;55.902;13.606;2024-02-26T12:26:51;100127.90;;;9.47;41.66
49709;BME280;35601;55.902;13.606;2024-02-26T12:29:16;100125.83;;;9.66;41.36
49709;BME280;35601;55.902;13.606;2024-02-26T12:31:42;100124.05;;;9.66;41.32
49709;BME280;35601;55.902;13.606;2024-02-26T12:34:07;100129.71;;;9.48;43.90
49709;BME280;35601;55.902;13.606;2024-02-26T12:36:33;100131.36;;;9.30;44.46
49709;BME280;35601;55.902;13.606;2024-02-26T12:38:58;100131.76;;;9.32;43.88
49709;BME280;35601;55.902;13.606;2024-02-26T12:41:24;100136.58;;;9.14;41.54
49709;BME280;35601;55.902;13.606;2024-02-26T12:43:49;100137.88;;;9.47;44.64
49709;BME280;35601;55.902;13.606;2024-02-26T12:46:15;100141.72;;;9.59;44.51